Time;durP1;ratioP1;P1;durP2;ratioP2;P2;SDS_P1;SDS_P2;PMS_P1;PMS_P2;Temp;Humidity;BMP_temperature;BMP_pressure;BME280_temperature;BME280_humidity;BME280_pressure;Samples;Min_cycle;Max_cycle;Signal;HPM_P1;HPM_P2
2021/12/05 00:22:29;;;;;;;11.65;5.32;;;4.20;99.90;;;;;;4992466;28;20418;-74
2021/12/05 00:24:58;;;;;;;13.55;5.88;;;4.20;99.90;;;;;;4976372;28;20053;-74
2021/12/05 00:27:31;;;;;;;14.30;5.25;;;4.20;99.90;;;;;;4976182;28;20518;-74
2021/12/05 00:30:12;;;;;;;11.13;5.05;;;4.20;99.90;;;;;;4992722;28;20101;-74
2021/12/05 00:32:52;;;;;;;13.13;5.20;;;4.20;99.90;;;;;;4992404;28;20482;-74
2021/12/05 00:46:26;;;;;;;13.90;5.80;;;4.10;99.90;;;;;;4992533;28;20125;-74
2021/12/05 00:57:47;;;;;;;16.05;5.68;;;4.20;99.90;;;;;;4996156;28;20047;-76
2021/12/05 01:10:11;;;;;;;11.30;5.35;;;4.20;99.90;;;;;;4995852;28;20081;-76
2021/12/05 01:13:13;;;;;;;14.25;5.55;;;4.20;99.90;;;;;;4996012;28;20050;-76
2021/12/05 01:15:32;;;;;;;11.73;5.25;;;4.20;99.90;;;;;;4995839;28;20046;-76
2021/12/05 01:18:06;;;;;;;11.73;5.05;;;4.20;99.90;;;;;;4995952;28;20552;-76
2021/12/05 01:20:39;;;;;;;12.73;5.45;;;4.20;99.90;;;;;;4995632;28;20050;-76
2021/12/05 01:23:19;;;;;;;11.63;4.95;;;4.20;99.90;;;;;;4995809;28;20046;-76
2021/12/05 01:25:54;;;;;;;13.57;4.78;;;4.10;99.90;;;;;;4979322;28;20043;-76
2021/12/05 01:33:44;;;;;;;15.77;5.93;;;4.20;99.90;;;;;;4995347;28;20047;-76
2021/12/05 01:38:59;;;;;;;15.15;5.47;;;4.20;99.90;;;;;;4995290;28;20046;-76
2021/12/05 01:45:12;;;;;;;17.00;5.22;;;4.10;99.90;;;;;;4995118;28;20043;-76
2021/12/05 02:08:44;;;;;;;13.02;4.53;;;4.30;99.90;;;;;;4995020;28;20138;-76
2021/12/05 02:11:24;;;;;;;12.23;4.93;;;4.30;99.90;;;;;;4994849;28;20054;-74
2021/12/05 02:30:12;;;;;;;17.05;6.38;;;4.40;99.90;;;;;;4994404;28;20129;-73
2021/12/05 02:32:54;;;;;;;16.88;7.55;;;4.40;99.90;;;;;;4978286;28;20039;-75
2021/12/05 02:35:37;;;;;;;18.10;7.03;;;4.40;99.90;;;;;;4978467;28;20109;-74
2021/12/05 02:43:33;;;;;;;18.45;7.97;;;4.40;99.90;;;;;;4994323;28;20101;-74
2021/12/05 02:46:02;;;;;;;17.70;8.20;;;4.40;99.90;;;;;;4994101;28;20125;-74
2021/12/05 02:48:31;;;;;;;22.00;9.32;;;4.40;99.90;;;;;;4977866;28;20038;-74
2021/12/05 02:51:04;;;;;;;20.88;9.75;;;4.40;99.90;;;;;;4994032;28;20494;-74
2021/12/05 02:53:38;;;;;;;19.42;9.50;;;4.40;99.90;;;;;;4977793;28;20121;-73
2021/12/05 02:56:05;;;;;;;27.15;10.95;;;4.40;99.90;;;;;;4994201;28;20039;-73
2021/12/05 02:58:52;;;;;;;24.15;9.68;;;4.40;99.90;;;;;;4977827;28;20035;-73
2021/12/05 03:01:27;;;;;;;23.77;10.45;;;4.40;99.90;;;;;;4994130;28;20109;-76
2021/12/05 03:03:54;;;;;;;21.50;10.00;;;4.50;99.90;;;;;;4977889;28;20045;-73
2021/12/05 03:06:24;;;;;;;23.25;9.95;;;4.40;99.90;;;;;;4993867;28;20145;-73
2021/12/05 03:08:57;;;;;;;24.73;11.57;;;4.50;99.90;;;;;;4993685;28;20043;-76
2021/12/05 03:11:24;;;;;;;;;;;4.50;99.90;;;;;;4993874;28;20406;-74
2021/12/05 03:13:50;;;;;;;25.35;11.57;;;4.40;99.90;;;;;;4993519;28;19957;-74
2021/12/05 03:16:18;;;;;;;25.40;11.80;;;4.40;99.90;;;;;;4977361;28;20391;-76
2021/12/05 03:18:44;;;;;;;19.10;10.48;;;4.50;99.90;;;;;;4977223;28;20128;-76
2021/12/05 03:21:10;;;;;;;24.75;11.23;;;4.40;99.90;;;;;;4993628;28;20113;-76
2021/12/05 03:23:38;;;;;;;24.60;11.98;;;4.40;99.90;;;;;;4993571;28;20042;-76
2021/12/05 03:26:06;;;;;;;24.60;11.13;;;4.40;99.90;;;;;;4977263;28;20046;-76
2021/12/05 03:28:32;;;;;;;31.92;12.75;;;4.40;99.90;;;;;;4977088;28;20084;-76
2021/12/05 03:30:59;;;;;;;26.90;12.18;;;4.40;99.90;;;;;;4977286;28;20413;-76
2021/12/05 03:33:24;;;;;;;28.70;11.40;;;4.40;99.90;;;;;;4993399;28;20104;-76
2021/12/05 03:35:50;;;;;;;22.27;11.13;;;4.40;99.90;;;;;;4977237;28;20487;-76
2021/12/05 03:38:16;;;;;;;24.08;11.52;;;4.40;99.90;;;;;;4993487;28;20042;-76
2021/12/05 03:40:42;;;;;;;23.83;10.73;;;4.30;99.90;;;;;;4993323;28;20038;-76
2021/12/05 03:43:10;;;;;;;29.73;11.10;;;4.30;99.90;;;;;;4993302;28;20070;-73
2021/12/05 03:45:41;;;;;;;25.85;11.85;;;4.40;99.90;;;;;;4994389;28;20046;-73
2021/12/05 03:48:07;;;;;;;26.20;10.82;;;4.40;99.90;;;;;;4976698;28;20038;-74
2021/12/05 03:50:34;;;;;;;27.95;10.82;;;4.40;99.90;;;;;;4992978;28;20085;-74
2021/12/05 03:53:00;;;;;;;30.27;10.23;;;4.40;99.90;;;;;;4992819;28;20130;-73
2021/12/05 03:55:27;;;;;;;22.95;9.85;;;4.40;99.90;;;;;;4976910;28;20125;-72
2021/12/05 03:57:53;;;;;;;24.40;9.52;;;4.40;99.90;;;;;;4992836;28;20043;-73
2021/12/05 04:00:32;;;;;;;27.30;10.65;;;4.40;99.90;;;;;;4993037;28;20042;-73
2021/12/05 04:03:02;;;;;;;25.83;10.52;;;4.40;99.90;;;;;;4993562;28;20116;-74
2021/12/05 04:05:31;;;;;;;24.88;10.18;;;4.30;99.90;;;;;;4992665;28;20046;-74
2021/12/05 04:07:57;;;;;;;24.08;9.35;;;4.30;99.90;;;;;;4992690;28;20046;-74
2021/12/05 04:10:26;;;;;;;27.70;9.77;;;4.30;99.90;;;;;;4976480;28;20042;-73
2021/12/05 04:12:52;;;;;;;23.75;10.32;;;4.30;99.90;;;;;;4992685;28;20046;-74
2021/12/05 04:15:18;;;;;;;22.67;9.25;;;4.30;99.90;;;;;;4992665;28;20145;-74
2021/12/05 04:17:44;;;;;;;22.02;8.80;;;4.20;99.90;;;;;;4976680;28;20048;-74
2021/12/05 04:20:12;;;;;;;26.95;9.55;;;4.20;99.90;;;;;;4992539;28;20125;-74
2021/12/05 04:22:38;;;;;;;27.73;9.65;;;4.20;99.90;;;;;;4975824;28;20449;-74
2021/12/05 04:25:09;;;;;;;25.77;8.30;;;4.20;99.90;;;;;;4992796;28;20065;-74
2021/12/05 04:27:35;;;;;;;20.35;8.13;;;4.20;99.90;;;;;;4992557;28;20063;-74
2021/12/05 04:30:02;;;;;;;21.92;8.45;;;4.10;99.90;;;;;;4992473;28;20037;-74
2021/12/05 04:32:28;;;;;;;23.38;9.05;;;4.10;99.90;;;;;;4976372;28;20043;-74
2021/12/05 04:34:53;;;;;;;23.13;8.75;;;4.10;99.90;;;;;;4992429;28;20150;-74
2021/12/05 04:37:19;;;;;;;23.25;8.02;;;4.10;99.90;;;;;;4993109;28;20101;-75
2021/12/05 04:39:44;;;;;;;18.98;7.75;;;4.10;99.90;;;;;;4993021;28;20514;-76
2021/12/05 04:42:10;;;;;;;23.63;7.93;;;4.10;99.90;;;;;;4993063;28;20132;-76
2021/12/05 04:44:36;;;;;;;23.77;9.05;;;4.00;99.90;;;;;;4976260;28;20410;-76
2021/12/05 04:47:02;;;;;;;22.90;7.38;;;4.00;99.90;;;;;;4992458;28;20130;-76
2021/12/05 04:49:28;;;;;;;23.55;8.10;;;4.00;99.90;;;;;;4976459;28;20034;-76
2021/12/05 04:51:54;;;;;;;19.48;7.47;;;4.00;99.90;;;;;;4976637;28;20402;-76
2021/12/05 04:54:20;;;;;;;16.73;6.93;;;3.90;99.90;;;;;;4992726;28;20042;-76
2021/12/05 04:56:48;;;;;;;20.63;7.60;;;3.90;99.90;;;;;;4976059;28;20039;-76
2021/12/05 04:59:16;;;;;;;21.67;6.82;;;3.90;99.90;;;;;;4992243;28;20042;-76
2021/12/05 05:01:45;;;;;;;20.02;7.13;;;3.90;99.90;;;;;;4992244;28;20053;-76
2021/12/05 05:04:22;;;;;;;16.55;7.22;;;3.90;99.90;;;;;;4992013;28;20406;-76
2021/12/05 05:06:48;;;;;;;20.92;6.88;;;3.90;99.90;;;;;;4992201;28;20104;-73
2021/12/05 05:09:14;;;;;;;20.15;6.88;;;3.80;99.90;;;;;;4976185;28;20042;-73
2021/12/05 05:11:41;;;;;;;19.63;7.40;;;3.80;99.90;;;;;;4976408;28;20038;-73
2021/12/05 05:14:08;;;;;;;19.92;7.05;;;3.80;99.90;;;;;;4975818;28;20506;-74
2021/12/05 05:16:34;;;;;;;17.90;6.68;;;3.80;99.90;;;;;;4992323;28;20124;-74
2021/12/05 05:19:00;;;;;;;24.05;6.07;;;3.80;99.90;;;;;;4976219;28;20460;-76
2021/12/05 05:27:26;;;;;;;;;;;3.70;99.90;;;;;;4955914;28;20184;-76
2021/12/05 05:43:42;;;;;;;21.67;6.43;;;3.60;99.90;;;;;;4995575;28;20050;-76
2021/12/05 05:46:13;;;;;;;20.33;6.28;;;3.60;99.90;;;;;;4979631;28;20048;-76
2021/12/05 05:51:07;;;;;;;20.02;6.22;;;3.60;99.90;;;;;;4995686;28;20045;-76
2021/12/05 05:53:33;;;;;;;20.52;5.70;;;3.60;99.90;;;;;;4995577;28;20545;-75
2021/12/05 05:55:59;;;;;;;20.75;6.22;;;3.60;99.90;;;;;;4979136;28;20046;-73
2021/12/05 05:58:40;;;;;;;20.58;6.07;;;3.60;99.90;;;;;;4995227;28;20030;-76
2021/12/05 06:01:14;;;;;;;16.77;6.25;;;3.50;99.90;;;;;;4978747;28;20501;-76
2021/12/05 06:03:40;;;;;;;15.98;5.88;;;3.50;99.90;;;;;;4978586;28;20483;-74
2021/12/05 06:06:09;;;;;;;22.80;6.82;;;3.40;99.90;;;;;;4978603;28;20125;-74
2021/12/05 06:08:37;;;;;;;16.95;6.15;;;3.40;99.90;;;;;;4978687;28;20042;-73
2021/12/05 06:11:07;;;;;;;23.08;6.32;;;3.40;99.90;;;;;;4978544;28;20034;-73
2021/12/05 06:13:36;;;;;;;18.52;6.00;;;3.30;99.90;;;;;;4995982;28;20074;-73
2021/12/05 06:16:03;;;;;;;20.23;6.57;;;3.40;99.90;;;;;;4994640;28;20073;-72
2021/12/05 06:18:29;;;;;;;24.08;6.90;;;3.30;99.90;;;;;;4978396;28;20085;-72
2021/12/05 06:20:55;;;;;;;19.08;6.88;;;3.30;99.90;;;;;;4994577;28;20038;-73
2021/12/05 06:23:21;;;;;;;22.30;6.50;;;3.30;99.90;;;;;;4994703;28;20045;-73
2021/12/05 06:25:50;;;;;;;21.05;6.40;;;3.30;99.90;;;;;;4994479;28;20047;-73
2021/12/05 06:28:23;;;;;;;19.55;6.88;;;3.30;99.90;;;;;;4994347;28;20038;-73
2021/12/05 06:47:27;;;;;;;20.95;7.15;;;3.40;99.90;;;;;;4994002;28;20046;-73
2021/12/05 06:49:54;;;;;;;21.27;7.00;;;3.50;99.90;;;;;;4977785;28;20497;-73
2021/12/05 06:52:21;;;;;;;22.85;7.57;;;3.50;99.90;;;;;;4993914;28;20553;-74
2021/12/05 06:54:46;;;;;;;18.55;6.82;;;3.60;99.90;;;;;;4994233;28;20402;-74
2021/12/05 06:57:12;;;;;;;17.98;6.60;;;3.60;99.90;;;;;;4977726;28;20429;-74
2021/12/05 06:59:40;;;;;;;20.20;7.50;;;3.60;99.90;;;;;;4977685;28;20042;-74
2021/12/05 07:02:09;;;;;;;20.48;8.10;;;3.60;99.90;;;;;;4993893;28;20053;-74
2021/12/05 07:07:26;;;;;;;16.73;7.47;;;3.70;99.90;;;;;;4993688;28;20487;-73
2021/12/05 07:09:52;;;;;;;20.55;8.50;;;3.70;99.90;;;;;;4977834;28;20038;-73
2021/12/05 07:15:11;;;;;;;20.58;7.55;;;3.80;99.90;;;;;;4993547;28;20073;-74
2021/12/05 07:20:43;;;;;;;15.32;7.22;;;3.80;99.90;;;;;;4993478;28;20109;-73
2021/12/05 07:23:25;;;;;;;21.35;8.02;;;3.80;99.90;;;;;;4993383;28;20042;-73
2021/12/05 07:26:07;;;;;;;16.00;8.18;;;3.80;99.90;;;;;;4993387;28;20046;-74
2021/12/05 07:42:21;;;;;;;19.23;8.35;;;4.00;99.90;;;;;;4993311;28;20046;-74
2021/12/05 07:44:47;;;;;;;23.88;8.68;;;4.00;99.90;;;;;;4976911;28;20105;-73
2021/12/05 07:47:18;;;;;;;17.95;8.20;;;4.00;99.90;;;;;;4993096;28;20125;-73
2021/12/05 07:49:44;;;;;;;23.13;9.02;;;4.10;99.90;;;;;;4993110;28;20038;-73
2021/12/05 07:52:14;;;;;;;19.65;8.55;;;4.10;99.90;;;;;;4976793;28;20038;-73
2021/12/05 07:54:45;;;;;;;22.95;8.60;;;4.10;99.90;;;;;;4992839;28;20423;-74
2021/12/05 07:57:19;;;;;;;21.45;9.30;;;4.10;99.90;;;;;;4975927;28;20072;-74
2021/12/05 08:00:00;;;;;;;16.13;8.23;;;4.20;99.90;;;;;;4976679;28;20046;-74
2021/12/05 08:16:11;;;;;;;17.55;8.80;;;4.30;99.90;;;;;;4992750;28;20046;-74
2021/12/05 08:18:37;;;;;;;20.50;8.52;;;4.30;99.90;;;;;;4977017;28;20066;-75
2021/12/05 08:21:05;;;;;;;15.98;8.68;;;4.40;99.90;;;;;;4993137;28;20081;-74
2021/12/05 08:23:32;;;;;;;18.30;8.35;;;4.30;99.90;;;;;;4993368;28;20046;-74
2021/12/05 08:26:15;;;;;;;20.42;9.02;;;4.40;99.90;;;;;;4992773;28;20434;-74
2021/12/05 09:23:30;;;;;;;21.52;8.85;;;4.70;99.90;;;;;;4995568;28;20133;-73
2021/12/05 10:34:10;;;;;;;12.32;6.07;;;5.20;99.90;;;;;;4994296;28;20038;-73
2021/12/05 10:36:38;;;;;;;10.65;5.05;;;5.30;99.90;;;;;;4978201;28;20049;-73
2021/12/05 10:39:10;;;;;;;14.23;5.68;;;5.30;99.90;;;;;;4978085;28;20038;-73
2021/12/05 10:44:10;;;;;;;15.75;5.65;;;5.40;99.90;;;;;;4994109;28;20042;-73
2021/12/05 10:46:39;;;;;;;14.63;5.55;;;5.40;99.90;;;;;;4977933;28;20048;-73
2021/12/05 10:49:06;;;;;;;10.90;5.20;;;5.40;99.90;;;;;;4994005;28;20049;-73
2021/12/05 10:51:40;;;;;;;19.52;6.88;;;5.40;99.90;;;;;;4994010;28;20142;-73
2021/12/05 10:54:12;;;;;;;11.57;5.20;;;5.40;99.90;;;;;;4977794;28;20045;-73
2021/12/05 10:56:42;;;;;;;13.45;5.03;;;5.50;99.90;;;;;;4977784;28;20038;-73
2021/12/05 10:59:10;;;;;;;17.55;6.18;;;5.50;99.90;;;;;;4993908;28;20133;-73
2021/12/05 11:01:49;;;;;;;14.95;5.93;;;5.50;99.90;;;;;;4993880;28;20049;-73
2021/12/05 11:04:18;;;;;;;10.25;4.75;;;5.50;99.90;;;;;;4993896;28;20050;-73
2021/12/05 11:06:50;;;;;;;14.05;5.50;;;5.50;99.90;;;;;;4977625;28;20065;-73
2021/12/05 11:09:36;;;;;;;11.07;4.70;;;5.50;99.90;;;;;;4977528;28;20045;-73
2021/12/05 11:12:12;;;;;;;13.85;5.68;;;5.60;99.90;;;;;;4977503;28;20038;-73
2021/12/05 11:14:43;;;;;;;13.73;5.68;;;5.50;99.90;;;;;;4993535;28;20490;-73
2021/12/05 11:17:15;;;;;;;11.73;5.07;;;5.50;99.90;;;;;;4993504;28;20042;-73
2021/12/05 11:19:46;;;;;;;12.65;5.13;;;5.60;99.90;;;;;;4993487;28;20061;-73
2021/12/05 11:22:36;;;;;;;8.70;4.90;;;5.60;99.90;;;;;;4977237;28;20093;-73
2021/12/05 11:25:04;;;;;;;14.05;4.55;;;5.60;99.90;;;;;;4977407;28;20049;-72
2021/12/05 11:27:42;;;;;;;9.30;4.70;;;5.60;99.90;;;;;;4993319;28;20054;-72
2021/12/05 11:30:30;;;;;;;11.30;4.18;;;5.60;99.90;;;;;;4993328;28;20081;-72
2021/12/05 11:32:59;;;;;;;10.40;4.43;;;5.70;99.90;;;;;;4993198;28;20039;-72
2021/12/05 11:35:30;;;;;;;13.38;4.97;;;5.70;99.90;;;;;;4993327;28;20043;-72
2021/12/05 11:38:05;;;;;;;12.35;5.00;;;5.60;99.90;;;;;;4993221;28;20108;-72
2021/12/05 11:41:06;;;;;;;14.00;4.55;;;5.70;99.90;;;;;;4993384;28;20124;-72
2021/12/05 11:43:39;;;;;;;11.32;4.30;;;5.70;99.90;;;;;;4992954;28;20034;-73
2021/12/05 11:46:20;;;;;;;12.68;4.80;;;5.70;99.90;;;;;;4976888;28;20125;-73
2021/12/05 11:48:54;;;;;;;11.13;4.90;;;5.70;99.90;;;;;;4993019;28;20042;-72
2021/12/05 11:51:29;;;;;;;12.63;5.57;;;5.70;99.90;;;;;;4976808;28;20042;-72
2021/12/05 11:54:08;;;;;;;11.98;5.30;;;5.70;99.90;;;;;;4992839;28;20034;-73
2021/12/05 11:56:33;;;;;;;13.07;5.68;;;5.70;99.90;;;;;;4992847;28;20141;-73
2021/12/05 11:59:04;;;;;;;9.23;5.05;;;5.70;99.90;;;;;;4976960;28;20049;-73
2021/12/05 12:01:37;;;;;;;10.85;4.63;;;5.70;99.90;;;;;;4992771;28;20073;-73
2021/12/05 12:04:03;;;;;;;;;;;5.80;99.90;;;;;;4977035;28;20091;-72
2021/12/05 12:06:29;;;;;;;10.05;4.57;;;5.70;99.90;;;;;;4992691;28;19961;-73
2021/12/05 12:08:55;;;;;;;11.57;5.10;;;5.70;99.90;;;;;;4992686;28;20042;-72
2021/12/05 12:11:23;;;;;;;10.68;5.18;;;5.80;99.90;;;;;;4992631;28;20080;-72
2021/12/05 12:13:50;;;;;;;9.70;4.90;;;5.80;99.90;;;;;;4992546;28;20524;-72
2021/12/05 12:16:16;;;;;;;11.38;5.28;;;5.80;99.90;;;;;;4992549;28;20074;-72
2021/12/05 12:18:45;;;;;;;11.35;5.70;;;5.80;99.90;;;;;;4992736;28;20069;-72
2021/12/05 12:21:21;;;;;;;10.27;4.63;;;5.90;99.90;;;;;;4992566;28;20126;-72
2021/12/05 12:23:53;;;;;;;8.07;4.47;;;5.90;99.90;;;;;;4992513;28;20038;-72
2021/12/05 12:26:20;;;;;;;9.63;4.93;;;6.00;99.90;;;;;;4976321;28;20077;-73
2021/12/05 12:28:46;;;;;;;13.00;5.50;;;6.00;99.90;;;;;;4992555;28;20402;-72
2021/12/05 12:31:18;;;;;;;12.00;5.40;;;6.00;99.90;;;;;;4992415;28;20050;-72
2021/12/05 12:33:53;;;;;;;13.40;5.22;;;6.10;99.90;;;;;;4976210;28;20030;-73
2021/12/05 12:36:43;;;;;;;12.45;5.00;;;6.10;99.90;;;;;;4992922;28;20100;-73
2021/12/05 12:39:21;;;;;;;12.50;4.93;;;6.10;99.90;;;;;;4992586;28;20419;-73
2021/12/05 12:42:18;;;;;;;9.60;4.75;;;6.10;99.90;;;;;;4976380;28;20398;-73
2021/12/05 12:45:20;;;;;;;9.55;4.60;;;6.10;99.90;;;;;;4995799;28;20100;-73
2021/12/05 12:47:58;;;;;;;7.15;4.93;;;6.00;99.90;;;;;;4980125;28;20088;-73
2021/12/05 12:50:37;;;;;;;10.80;4.78;;;6.00;99.90;;;;;;4996521;28;20475;-73
2021/12/05 12:53:10;;;;;;;13.35;4.75;;;6.00;99.90;;;;;;4979922;28;20041;-73
2021/12/05 12:55:38;;;;;;;10.98;4.45;;;6.00;99.90;;;;;;4996268;28;20034;-73
2021/12/05 12:58:08;;;;;;;11.48;4.68;;;6.00;99.90;;;;;;4996123;28;20506;-73
2021/12/05 13:00:39;;;;;;;11.55;4.63;;;6.10;99.90;;;;;;4996337;28;20124;-74
2021/12/05 13:03:28;;;;;;;11.32;4.82;;;6.10;99.90;;;;;;4995860;28;20043;-74
2021/12/05 13:11:55;;;;;;;11.40;4.15;;;6.10;99.90;;;;;;4996073;28;20090;-73
2021/12/05 13:14:21;;;;;;;12.20;4.80;;;6.10;99.90;;;;;;4995787;28;20530;-73
2021/12/05 13:16:49;;;;;;;14.27;5.30;;;6.10;99.90;;;;;;4995753;28;20129;-73
2021/12/05 13:19:22;;;;;;;12.10;5.57;;;6.10;99.90;;;;;;4995752;28;20042;-73
2021/12/05 13:21:50;;;;;;;15.50;5.88;;;6.10;99.90;;;;;;4979479;28;20034;-74
2021/12/05 13:24:27;;;;;;;12.18;4.80;;;6.20;99.90;;;;;;4995528;28;20038;-73
2021/12/05 13:27:03;;;;;;;10.68;4.63;;;6.10;99.90;;;;;;4995812;28;20053;-73
2021/12/05 13:29:35;;;;;;;9.75;4.78;;;6.10;99.90;;;;;;4995862;28;20043;-73
2021/12/05 13:32:10;;;;;;;10.95;4.70;;;6.10;99.90;;;;;;4995483;28;20457;-73
2021/12/05 13:34:42;;;;;;;10.52;4.30;;;6.10;99.90;;;;;;4979087;28;20042;-73
2021/12/05 13:37:13;;;;;;;6.72;4.05;;;6.10;99.90;;;;;;4995561;28;20046;-74
2021/12/05 13:39:52;;;;;;;7.40;3.72;;;6.10;99.90;;;;;;4995542;28;20081;-73
2021/12/05 13:42:26;;;;;;;8.32;3.65;;;6.10;99.90;;;;;;4995296;28;20046;-75
2021/12/05 13:45:04;;;;;;;6.72;3.83;;;6.10;99.90;;;;;;4995682;28;20048;-76
2021/12/05 13:47:53;;;;;;;8.27;4.10;;;6.10;99.90;;;;;;4995270;28;20046;-76
2021/12/05 13:50:18;;;;;;;14.95;4.20;;;6.10;99.90;;;;;;4995600;28;20035;-76
2021/12/05 13:52:45;;;;;;;7.85;4.78;;;6.20;99.90;;;;;;4979237;28;20045;-76
2021/12/05 13:55:53;;;;;;;7.60;3.83;;;6.10;99.90;;;;;;4978084;28;20046;-76
2021/12/05 13:58:35;;;;;;;10.27;4.50;;;6.20;99.90;;;;;;4995256;28;20614;-73
2021/12/05 14:01:19;;;;;;;9.02;4.82;;;6.20;99.90;;;;;;4995248;28;20054;-73
2021/12/05 14:04:09;;;;;;;11.23;4.82;;;6.20;99.90;;;;;;4994999;28;20038;-73
2021/12/05 14:06:38;;;;;;;9.80;5.38;;;6.20;99.90;;;;;;4994874;28;20053;-73
2021/12/05 14:09:19;;;;;;;12.02;5.82;;;6.20;99.90;;;;;;4978641;28;20074;-74
2021/12/05 14:12:09;;;;;;;14.48;6.07;;;6.30;99.90;;;;;;4978670;28;20085;-73
2021/12/05 14:14:38;;;;;;;11.60;5.13;;;6.20;99.90;;;;;;4978463;28;20034;-73
2021/12/05 14:17:40;;;;;;;9.13;5.07;;;6.20;99.90;;;;;;4994737;28;20049;-74
2021/12/05 14:20:08;;;;;;;10.90;5.18;;;6.20;99.90;;;;;;4981677;28;20065;-73
2021/12/05 14:22:36;;;;;;;12.68;4.57;;;6.20;99.90;;;;;;4994502;28;20556;-74
2021/12/05 14:25:15;;;;;;;10.07;4.05;;;6.20;99.90;;;;;;4978372;28;20049;-73
2021/12/05 14:27:45;;;;;;;8.18;4.10;;;6.10;99.90;;;;;;4978447;28;20116;-74
2021/12/05 14:30:14;;;;;;;9.88;4.70;;;6.10;99.90;;;;;;4978220;28;20042;-73
2021/12/05 14:32:44;;;;;;;11.73;6.18;;;6.10;99.90;;;;;;4994372;28;20070;-74
2021/12/05 14:35:24;;;;;;;12.00;6.07;;;6.10;99.90;;;;;;4994313;28;20116;-73
2021/12/05 14:37:52;;;;;;;8.57;5.72;;;6.00;99.90;;;;;;4994383;28;20041;-73
2021/12/05 14:40:30;;;;;;;8.98;4.43;;;6.00;99.90;;;;;;4978084;28;20054;-74
2021/12/05 14:42:59;;;;;;;6.85;3.85;;;6.10;99.90;;;;;;4994525;28;20085;-73
2021/12/05 14:45:31;;;;;;;7.78;4.32;;;6.20;99.90;;;;;;4977919;28;20121;-73
2021/12/05 14:48:02;;;;;;;10.80;4.38;;;6.40;99.90;;;;;;4994124;28;20034;-73
2021/12/05 14:50:30;;;;;;;8.77;4.60;;;6.40;99.90;;;;;;4994435;28;20034;-73
2021/12/05 14:53:00;;;;;;;8.95;4.45;;;6.40;99.90;;;;;;4977767;28;20499;-74
2021/12/05 14:55:28;;;;;;;7.93;4.43;;;6.30;99.90;;;;;;4993937;28;20125;-73
2021/12/05 14:57:57;;;;;;;11.18;4.20;;;6.30;99.90;;;;;;4994128;28;20096;-73
2021/12/05 15:00:34;;;;;;;9.85;4.82;;;6.20;99.90;;;;;;4994165;28;20129;-73
2021/12/05 15:03:06;;;;;;;5.63;3.70;;;6.20;99.90;;;;;;5002897;23;20450;-75
2021/12/05 15:05:33;;;;;;;9.25;4.07;;;6.20;99.90;;;;;;4996159;28;20460;-74
2021/12/05 15:08:08;;;;;;;8.10;4.00;;;6.20;99.90;;;;;;4996902;28;20557;-74
2021/12/05 15:10:35;;;;;;;7.40;4.18;;;6.10;99.90;;;;;;4997398;28;20050;-75
2021/12/05 15:13:01;;;;;;;9.50;4.30;;;6.10;99.90;;;;;;4996819;28;20125;-75
2021/12/05 15:15:27;;;;;;;7.88;3.60;;;6.10;99.90;;;;;;4996891;28;20116;-74
2021/12/05 15:17:55;;;;;;;6.88;3.80;;;6.00;99.90;;;;;;4996843;28;20050;-74
2021/12/05 15:20:26;;;;;;;8.18;3.55;;;6.00;99.90;;;;;;4996753;28;20125;-74
2021/12/05 15:23:00;;;;;;;7.07;3.40;;;6.00;99.90;;;;;;4980519;28;20045;-74
2021/12/05 15:25:28;;;;;;;6.05;4.30;;;6.00;99.90;;;;;;4996685;28;20422;-74
2021/12/05 15:27:54;;;;;;;6.28;4.10;;;5.90;99.90;;;;;;4996559;28;20038;-74
2021/12/05 15:30:23;;;;;;;8.50;4.38;;;5.90;99.90;;;;;;4996790;28;20051;-74
2021/12/05 15:33:08;;;;;;;8.15;4.60;;;5.90;99.90;;;;;;4980344;28;20042;-74
2021/12/05 15:35:34;;;;;;;10.05;4.35;;;5.80;99.90;;;;;;4996729;28;20034;-74
2021/12/05 15:38:05;;;;;;;10.57;4.53;;;5.80;99.90;;;;;;4996369;28;20497;-74
2021/12/05 15:40:32;;;;;;;9.60;4.90;;;5.90;99.90;;;;;;4996709;28;20402;-75
2021/12/05 15:43:00;;;;;;;11.90;5.00;;;5.80;99.90;;;;;;4996263;28;20042;-74
2021/12/05 15:45:26;;;;;;;11.65;5.03;;;5.80;99.90;;;;;;4996296;28;20088;-74
2021/12/05 15:47:51;;;;;;;13.43;6.22;;;5.90;99.90;;;;;;4996190;28;20125;-75
2021/12/05 15:50:20;;;;;;;12.98;6.55;;;5.90;99.90;;;;;;4996530;28;20049;-75
2021/12/05 15:52:58;;;;;;;13.25;7.22;;;5.90;99.90;;;;;;4980029;28;20042;-75
2021/12/05 15:55:39;;;;;;;10.65;5.90;;;5.90;99.90;;;;;;4996489;28;20044;-75
2021/12/05 15:58:18;;;;;;;12.77;6.13;;;5.90;99.90;;;;;;4996162;28;20073;-75
2021/12/05 16:00:49;;;;;;;10.07;6.45;;;5.80;99.90;;;;;;4996328;28;20053;-75
2021/12/05 16:03:20;;;;;;;11.77;7.00;;;5.90;99.90;;;;;;4995900;28;20050;-74
2021/12/05 16:05:56;;;;;;;12.18;6.95;;;5.80;99.90;;;;;;4980162;28;20127;-75
2021/12/05 16:08:22;;;;;;;17.30;8.77;;;5.90;99.90;;;;;;4995970;28;20045;-74
2021/12/05 16:10:50;;;;;;;15.82;9.20;;;5.90;99.90;;;;;;4995964;28;20501;-74
2021/12/05 16:13:22;;;;;;;17.30;9.07;;;5.90;99.90;;;;;;4995874;28;20514;-74
2021/12/05 16:15:52;;;;;;;15.15;8.68;;;5.90;99.90;;;;;;4995884;28;20565;-75
2021/12/05 16:18:19;;;;;;;12.25;8.55;;;5.90;99.90;;;;;;4979281;28;20498;-74
2021/12/05 16:20:55;;;;;;;16.05;8.80;;;5.90;99.90;;;;;;5012168;28;20049;-75
2021/12/05 16:23:26;;;;;;;16.77;9.35;;;5.90;99.90;;;;;;4995676;28;20445;-74
2021/12/05 16:25:57;;;;;;;16.63;9.25;;;5.90;99.90;;;;;;4995723;28;20042;-75
2021/12/05 16:28:28;;;;;;;19.50;8.88;;;5.90;99.90;;;;;;4995711;28;20045;-74
2021/12/05 16:31:00;;;;;;;15.68;9.20;;;5.90;99.90;;;;;;4995756;28;20038;-75
2021/12/05 16:33:29;;;;;;;18.52;8.77;;;5.80;99.90;;;;;;4995659;28;20033;-75
2021/12/05 16:35:55;;;;;;;15.43;9.23;;;5.80;99.90;;;;;;4979651;28;20042;-74
2021/12/05 16:38:25;;;;;;;14.07;9.27;;;5.80;99.90;;;;;;4979469;28;20084;-74
2021/12/05 16:40:53;;;;;;;15.95;9.60;;;5.80;99.90;;;;;;4995262;28;20046;-74
2021/12/05 16:43:18;;;;;;;18.33;10.73;;;5.80;99.90;;;;;;4995584;28;20041;-74
2021/12/05 16:45:44;;;;;;;19.63;10.25;;;5.80;99.90;;;;;;4995593;28;20096;-75
2021/12/05 16:48:16;;;;;;;18.05;10.75;;;5.80;99.90;;;;;;4995552;28;20042;-74
2021/12/05 16:50:41;;;;;;;21.10;11.30;;;5.80;99.90;;;;;;4995530;28;20038;-75
2021/12/05 16:53:07;;;;;;;16.00;9.82;;;5.70;99.90;;;;;;4995750;28;20038;-74
2021/12/05 16:55:39;;;;;;;22.00;10.60;;;5.80;99.90;;;;;;4995513;28;20034;-74
2021/12/05 16:58:16;;;;;;;18.90;10.70;;;5.80;99.90;;;;;;4995615;28;20052;-74
2021/12/05 17:00:48;;;;;;;17.15;11.82;;;5.80;99.90;;;;;;4995826;28;20050;-74
2021/12/05 17:03:18;;;;;;;22.80;13.43;;;5.80;99.90;;;;;;4979324;28;20069;-74
2021/12/05 17:05:48;;;;;;;24.75;13.88;;;5.80;99.90;;;;;;4995599;28;20121;-74
2021/12/05 17:08:17;;;;;;;21.48;12.73;;;5.80;99.90;;;;;;4996542;28;20042;-74
2021/12/05 17:10:47;;;;;;;22.55;12.73;;;5.70;99.90;;;;;;4979113;28;20048;-74
2021/12/05 17:13:19;;;;;;;22.20;12.63;;;5.80;99.90;;;;;;4979192;28;20038;-74
2021/12/05 17:16:01;;;;;;;19.77;11.77;;;5.80;99.90;;;;;;4995344;28;20042;-74
2021/12/05 17:18:42;;;;;;;18.30;11.30;;;5.80;99.90;;;;;;4995369;28;20069;-74
2021/12/05 17:21:28;;;;;;;22.20;12.25;;;5.80;99.90;;;;;;4995391;28;20077;-75
2021/12/05 17:23:58;;;;;;;19.42;13.02;;;5.70;99.90;;;;;;4995244;28;20050;-74
2021/12/05 17:26:45;;;;;;;22.95;13.15;;;5.70;99.90;;;;;;4995188;28;20041;-74
2021/12/05 17:29:19;;;;;;;19.80;13.13;;;5.70;99.90;;;;;;4979578;28;20114;-75
2021/12/05 17:31:53;;;;;;;17.77;12.40;;;5.70;99.90;;;;;;4998758;28;20041;-75
2021/12/05 17:34:25;;;;;;;24.25;13.13;;;5.70;99.90;;;;;;4998715;28;20077;-74
2021/12/05 17:36:57;;;;;;;19.73;13.07;;;5.70;99.90;;;;;;4982514;28;20045;-75
2021/12/05 17:39:35;;;;;;;22.30;12.93;;;5.60;99.90;;;;;;4998965;28;20285;-75
2021/12/05 17:42:11;;;;;;;23.23;14.60;;;5.70;99.90;;;;;;4998646;28;20049;-74
2021/12/05 17:44:39;;;;;;;23.02;13.60;;;5.70;99.90;;;;;;4982233;28;20125;-74
2021/12/05 17:47:08;;;;;;;25.33;15.05;;;5.60;99.90;;;;;;4998671;28;20088;-74
2021/12/05 17:49:36;;;;;;;22.63;15.25;;;5.70;99.90;;;;;;4982239;28;20038;-75
2021/12/05 17:52:04;;;;;;;26.63;14.90;;;5.70;99.90;;;;;;4998398;28;20084;-75
2021/12/05 17:54:37;;;;;;;26.75;16.23;;;5.70;99.90;;;;;;4982301;28;20046;-74
2021/12/05 17:57:12;;;;;;;26.98;17.02;;;5.70;99.90;;;;;;4998613;28;20052;-74
2021/12/05 18:02:55;;;;;;;30.98;18.20;;;5.70;99.90;;;;;;4998442;28;20420;-74
2021/12/05 18:05:02;;;;;;;22.65;16.20;;;5.70;99.90;;;;;;4990288;28;20045;-74
2021/12/05 18:07:28;;;;;;;25.58;16.60;;;5.70;99.90;;;;;;4997812;28;20091;-75
2021/12/05 18:09:54;;;;;;;26.92;16.42;;;5.70;99.90;;;;;;4998129;28;20041;-75
2021/12/05 18:12:22;;;;;;;25.63;15.60;;;5.70;99.90;;;;;;4981743;28;20037;-74
2021/12/05 18:14:53;;;;;;;27.83;16.90;;;5.70;99.90;;;;;;4997967;28;20113;-75
2021/12/05 18:17:19;;;;;;;22.48;17.25;;;5.70;99.90;;;;;;4982073;28;20605;-75
2021/12/05 18:19:45;;;;;;;28.50;17.27;;;5.60;99.90;;;;;;4997935;28;20128;-75
2021/12/05 18:22:12;;;;;;;28.05;16.90;;;5.60;99.90;;;;;;4997889;28;20128;-74
2021/12/05 18:24:38;;;;;;;21.20;16.15;;;5.60;99.90;;;;;;4997757;28;20038;-74